createdAt,value
2018-06-17T00:00:39.185Z,5.03
2018-06-17T00:03:08.281Z,5.90
2018-06-17T00:05:37.385Z,5.53
2018-06-17T00:08:06.509Z,6.20
2018-06-17T00:10:35.609Z,6.27
2018-06-17T00:13:04.702Z,6.83
2018-06-17T00:15:33.797Z,6.57
2018-06-17T00:18:02.890Z,6.07
2018-06-17T00:20:31.991Z,5.53
2018-06-17T00:23:01.074Z,5.10
2018-06-17T00:25:30.165Z,6.03
2018-06-17T00:27:59.269Z,5.50
2018-06-17T00:30:28.353Z,5.33
2018-06-17T00:32:57.453Z,5.20
2018-06-17T00:35:26.529Z,5.70
2018-06-17T00:37:55.637Z,5.30
2018-06-17T00:40:24.721Z,5.63
2018-06-17T00:42:53.849Z,5.10
2018-06-17T00:45:22.937Z,5.60
2018-06-17T00:47:52.045Z,5.40
2018-06-17T00:50:21.134Z,5.57
2018-06-17T00:52:50.234Z,5.07
2018-06-17T00:55:19.309Z,4.83
2018-06-17T00:57:50.729Z,4.63
2018-06-17T01:00:21.077Z,5.40
2018-06-17T01:02:50.169Z,5.13
2018-06-17T01:05:19.269Z,5.43
2018-06-17T01:07:48.382Z,4.80
2018-06-17T01:10:17.494Z,4.73
2018-06-17T01:12:46.588Z,5.47
2018-06-17T01:15:15.681Z,5.43
2018-06-17T01:17:44.774Z,5.43
2018-06-17T01:20:16.378Z,5.10
2018-06-17T01:22:45.469Z,5.40
2018-06-17T01:25:14.565Z,5.53
2018-06-17T01:27:43.645Z,5.30
2018-06-17T01:30:12.746Z,5.00
2018-06-17T01:32:41.830Z,5.10
2018-06-17T01:35:10.929Z,4.87
2018-06-17T01:37:40.022Z,4.40
2018-06-17T01:40:09.129Z,4.57
2018-06-17T01:42:38.208Z,4.80
2018-06-17T01:45:07.290Z,5.27
2018-06-17T01:47:36.411Z,4.67
2018-06-17T01:50:05.501Z,5.23
2018-06-17T01:52:34.593Z,5.27
2018-06-17T01:55:03.677Z,5.00
2018-06-17T01:57:32.769Z,5.00
2018-06-17T02:00:01.868Z,4.20
2018-06-17T02:02:30.978Z,4.80
2018-06-17T02:05:05.282Z,4.30
2018-06-17T02:07:39.517Z,4.50
2018-06-17T02:11:15.642Z,5.23
2018-06-17T02:13:44.740Z,4.53
2018-06-17T02:16:13.809Z,5.00
2018-06-17T02:18:42.902Z,4.43
2018-06-17T02:21:11.988Z,5.03
2018-06-17T02:23:41.073Z,4.77
2018-06-17T02:26:10.159Z,4.33
2018-06-17T02:28:39.274Z,4.83
2018-06-17T02:31:08.358Z,4.60
2018-06-17T02:33:37.519Z,4.40
2018-06-17T02:36:06.625Z,4.73
2018-06-17T02:38:35.709Z,4.67
2018-06-17T02:41:05.397Z,5.53
2018-06-17T02:43:34.473Z,5.13
2018-06-17T02:46:08.829Z,5.50
2018-06-17T02:48:43.194Z,4.80
2018-06-17T02:51:17.818Z,5.10
2018-06-17T02:53:52.317Z,5.80
2018-06-17T02:56:21.404Z,4.47
2018-06-17T02:58:50.488Z,4.53
2018-06-17T03:01:19.590Z,5.10
2018-06-17T03:03:48.684Z,4.60
2018-06-17T03:06:17.790Z,5.20
2018-06-17T03:08:46.885Z,4.63
2018-06-17T03:11:15.989Z,5.10
2018-06-17T03:13:45.089Z,4.77
2018-06-17T03:16:14.189Z,5.83
2018-06-17T03:18:43.315Z,4.87
2018-06-17T03:21:12.413Z,5.70
2018-06-17T03:23:41.501Z,5.80
2018-06-17T03:26:16.022Z,5.53
2018-06-17T03:28:50.517Z,6.23
2018-06-17T03:31:20.413Z,6.70
2018-06-17T03:33:55.065Z,6.37
2018-06-17T03:36:24.149Z,6.00
2018-06-17T03:38:53.223Z,5.20
2018-06-17T03:41:22.314Z,5.70
2018-06-17T03:43:51.410Z,4.83
2018-06-17T03:46:20.506Z,6.23
2018-06-17T03:48:49.596Z,5.20
2018-06-17T03:51:18.713Z,6.00
2018-06-17T03:53:47.814Z,5.73
2018-06-17T03:56:16.913Z,5.87
2018-06-17T03:58:46.009Z,5.50
2018-06-17T04:01:15.113Z,6.13
2018-06-17T04:03:44.194Z,5.47
2018-06-17T04:06:13.341Z,6.00
2018-06-17T04:08:42.455Z,5.90
2018-06-17T04:11:11.822Z,6.47
2018-06-17T04:13:40.945Z,5.40
2018-06-17T04:16:10.199Z,6.07
2018-06-17T04:18:39.301Z,6.10
2018-06-17T04:21:08.405Z,6.57
2018-06-17T04:23:37.501Z,6.40
2018-06-17T04:26:06.951Z,5.73
2018-06-17T04:28:36.088Z,6.20
2018-06-17T04:31:05.221Z,5.90
2018-06-17T04:33:34.289Z,5.10
2018-06-17T04:36:03.409Z,5.60
2018-06-17T04:38:32.497Z,5.13
2018-06-17T04:41:01.581Z,5.37
2018-06-17T04:43:30.661Z,5.70
2018-06-17T04:45:59.749Z,5.20
2018-06-17T04:48:28.888Z,5.70
2018-06-17T04:50:57.949Z,5.43
2018-06-17T04:53:27.045Z,6.30
2018-06-17T04:55:56.173Z,5.93
2018-06-17T04:58:25.271Z,5.53
2018-06-17T05:00:54.377Z,6.20
2018-06-17T05:03:23.468Z,5.90
2018-06-17T05:05:52.573Z,5.23
2018-06-17T05:08:21.673Z,6.03
2018-06-17T05:10:50.759Z,5.50
2018-06-17T05:13:19.865Z,5.50
2018-06-17T05:15:48.953Z,5.27
2018-06-17T05:18:18.051Z,5.67
2018-06-17T05:20:47.133Z,5.30
2018-06-17T05:23:16.252Z,5.43
2018-06-17T05:25:45.513Z,5.43
2018-06-17T05:28:14.601Z,5.87
2018-06-17T05:30:43.686Z,5.20
2018-06-17T05:33:12.785Z,5.40
2018-06-17T05:35:41.889Z,5.63
2018-06-17T05:38:10.991Z,6.03
2018-06-17T05:40:40.109Z,6.17
2018-06-17T05:43:09.219Z,5.17
2018-06-17T05:45:38.297Z,5.37
2018-06-17T05:48:07.465Z,5.37
2018-06-17T05:50:36.561Z,5.43
2018-06-17T05:53:05.701Z,5.87
2018-06-17T05:55:34.783Z,5.60
2018-06-17T05:58:04.861Z,5.73
2018-06-17T06:00:33.965Z,5.23
2018-06-17T06:03:03.081Z,5.50
2018-06-17T06:05:32.181Z,4.73
2018-06-17T06:08:01.274Z,5.73
2018-06-17T06:10:30.388Z,5.17
2018-06-17T06:12:59.486Z,4.77
2018-06-17T06:15:28.581Z,5.70
2018-06-17T06:17:57.682Z,5.83
2018-06-17T06:20:26.785Z,5.60
2018-06-17T06:22:55.966Z,5.83
2018-06-17T06:25:25.074Z,5.23
2018-06-17T06:27:54.225Z,5.60
2018-06-17T06:30:23.356Z,6.03
2018-06-17T06:32:52.776Z,5.70
2018-06-17T06:35:21.868Z,4.80
2018-06-17T06:37:50.948Z,4.90
2018-06-17T06:40:20.049Z,4.50
2018-06-17T06:42:49.145Z,5.00
2018-06-17T06:45:18.261Z,4.50
2018-06-17T06:47:47.443Z,5.60
2018-06-17T06:50:16.561Z,4.90
2018-06-17T06:52:45.673Z,4.63
2018-06-17T06:55:14.767Z,4.43
2018-06-17T06:57:44.133Z,4.33
2018-06-17T07:00:13.245Z,4.23
2018-06-17T07:02:56.055Z,4.30
2018-06-17T07:05:36.341Z,4.53
2018-06-17T07:08:16.706Z,4.20
2018-06-17T07:10:45.816Z,4.60
2018-06-17T07:13:14.927Z,3.90
2018-06-17T07:15:55.404Z,4.10
2018-06-17T07:18:31.937Z,4.17
2018-06-17T07:21:00.753Z,4.10
2018-06-17T07:23:29.742Z,4.50
2018-06-17T07:26:51.153Z,4.03
2018-06-17T07:29:35.576Z,3.63
2018-06-17T07:32:04.466Z,3.87
2018-06-17T07:34:33.237Z,3.93
2018-06-17T07:37:02.101Z,4.37
2018-06-17T07:41:40.352Z,4.20
2018-06-17T07:44:09.177Z,4.10
2018-06-17T07:46:38.022Z,4.10
2018-06-17T07:49:28.061Z,3.63
2018-06-17T07:53:10.846Z,4.10
2018-06-17T07:55:39.805Z,4.13
2018-06-17T07:58:08.669Z,3.97
2018-06-17T08:00:37.489Z,4.03
2018-06-17T08:03:06.301Z,3.80
2018-06-17T08:05:35.134Z,4.10
2018-06-17T08:08:03.957Z,3.93
2018-06-17T08:10:32.792Z,3.63
2018-06-17T08:13:01.622Z,3.57
2018-06-17T08:15:30.425Z,3.97
2018-06-17T08:17:59.299Z,3.53
2018-06-17T08:20:28.114Z,3.73
2018-06-17T08:22:56.980Z,4.57
2018-06-17T08:25:25.880Z,4.00
2018-06-17T08:27:54.718Z,3.90
2018-06-17T08:30:23.602Z,3.67
2018-06-17T08:32:52.390Z,3.40
2018-06-17T08:35:21.227Z,3.53
2018-06-17T08:37:50.049Z,3.50
2018-06-17T08:40:18.849Z,5.10
2018-06-17T08:42:47.653Z,4.20
2018-06-17T08:45:16.461Z,4.10
2018-06-17T08:47:45.274Z,4.03
2018-06-17T08:50:14.096Z,4.00
2018-06-17T08:52:42.917Z,3.77
2018-06-17T08:55:11.805Z,4.20
2018-06-17T08:57:40.621Z,4.10
2018-06-17T09:00:10.490Z,4.03
2018-06-17T09:02:39.381Z,4.53
2018-06-17T09:05:08.369Z,4.50
2018-06-17T09:07:37.198Z,4.00
2018-06-17T09:10:07.042Z,4.40
2018-06-17T09:12:35.877Z,3.87
2018-06-17T09:15:04.699Z,4.57
2018-06-17T09:17:33.511Z,4.23
2018-06-17T09:20:02.346Z,4.40
2018-06-17T09:22:31.244Z,4.23
2018-06-17T09:25:00.043Z,4.20
2018-06-17T09:27:28.896Z,4.47
2018-06-17T09:29:57.769Z,4.30
2018-06-17T09:32:26.630Z,3.87
2018-06-17T09:34:55.917Z,3.97
2018-06-17T09:37:25.105Z,4.13
2018-06-17T09:39:53.930Z,4.60
2018-06-17T09:42:22.748Z,4.50
2018-06-17T09:44:51.621Z,3.97
2018-06-17T09:47:20.472Z,4.17
2018-06-17T09:49:50.506Z,4.23
2018-06-17T09:52:20.532Z,4.20
2018-06-17T09:54:49.377Z,3.97
2018-06-17T09:57:19.367Z,4.00
2018-06-17T09:59:48.211Z,4.40
2018-06-17T10:02:17.034Z,4.00
2018-06-17T10:04:45.865Z,3.90
2018-06-17T10:07:14.682Z,3.60
2018-06-17T10:09:56.697Z,3.90
2018-06-17T10:12:25.589Z,3.90
2018-06-17T10:14:54.693Z,3.80
2018-06-17T10:17:23.816Z,3.57
2018-06-17T10:19:52.925Z,3.63
2018-06-17T10:22:22.013Z,3.50
2018-06-17T10:24:51.100Z,3.53
2018-06-17T10:27:20.193Z,3.50
2018-06-17T10:29:49.292Z,3.30
2018-06-17T10:32:18.377Z,3.27
2018-06-17T10:34:47.472Z,3.50
2018-06-17T10:37:16.804Z,3.10
2018-06-17T10:39:46.021Z,3.60
2018-06-17T10:42:15.177Z,3.47
2018-06-17T10:44:48.046Z,3.40
2018-06-17T10:47:17.525Z,3.13
2018-06-17T10:49:46.583Z,3.60
2018-06-17T10:52:15.681Z,3.50
2018-06-17T10:54:44.781Z,3.47
2018-06-17T10:57:13.878Z,3.50
2018-06-17T10:59:43.045Z,3.43
2018-06-17T11:02:12.141Z,3.03
2018-06-17T11:04:41.230Z,3.50
2018-06-17T11:07:10.362Z,3.67
2018-06-17T11:09:39.437Z,3.60
2018-06-17T11:12:08.525Z,3.17
2018-06-17T11:14:37.617Z,3.50
2018-06-17T11:17:06.727Z,2.93
2018-06-17T11:19:35.865Z,3.37
2018-06-17T11:22:04.949Z,3.37
2018-06-17T11:24:34.061Z,3.40
2018-06-17T11:27:03.149Z,3.10
2018-06-17T11:29:32.250Z,3.20
2018-06-17T11:32:01.445Z,3.27
2018-06-17T11:34:30.595Z,3.70
2018-06-17T11:36:59.662Z,3.80
2018-06-17T11:39:28.758Z,3.67
2018-06-17T11:41:57.919Z,3.57
2018-06-17T11:44:27.012Z,3.50
2018-06-17T11:46:57.390Z,3.43
2018-06-17T11:49:26.525Z,3.47
2018-06-17T11:51:55.646Z,3.67
2018-06-17T11:54:24.729Z,3.30
2018-06-17T11:56:53.817Z,4.17
2018-06-17T11:59:22.906Z,3.67
2018-06-17T12:01:52.066Z,3.90
2018-06-17T12:04:21.102Z,3.30
2018-06-17T12:06:50.202Z,3.50
2018-06-17T12:09:19.289Z,3.40
2018-06-17T12:11:48.393Z,3.90
2018-06-17T12:14:17.472Z,3.40
2018-06-17T12:16:46.549Z,3.60
2018-06-17T12:19:15.667Z,3.77
2018-06-17T12:21:44.789Z,3.77
2018-06-17T12:24:13.877Z,3.30
2018-06-17T12:26:43.006Z,3.40
2018-06-17T12:29:12.108Z,3.27
2018-06-17T12:31:41.205Z,3.10
2018-06-17T12:34:10.304Z,3.57
2018-06-17T12:36:39.409Z,3.40
2018-06-17T12:39:10.402Z,3.80
2018-06-17T12:41:39.561Z,3.23
2018-06-17T12:44:08.677Z,3.80
2018-06-17T12:46:37.883Z,3.70
2018-06-17T12:49:07.032Z,2.83
2018-06-17T12:51:36.105Z,3.10
2018-06-17T12:54:05.258Z,3.20
2018-06-17T12:56:34.345Z,2.70
2018-06-17T12:59:03.446Z,3.10
2018-06-17T13:01:32.537Z,3.30
2018-06-17T13:04:01.717Z,3.27
2018-06-17T13:06:30.814Z,3.10
2018-06-17T13:08:59.915Z,4.10
2018-06-17T13:11:29.001Z,3.67
2018-06-17T13:13:58.125Z,3.30
2018-06-17T13:16:27.251Z,3.83
2018-06-17T13:18:56.333Z,3.87
2018-06-17T13:21:25.445Z,3.70
2018-06-17T13:23:54.615Z,3.23
2018-06-17T13:26:23.705Z,3.10
2018-06-17T13:28:52.817Z,3.80
2018-06-17T13:31:21.953Z,3.70
2018-06-17T13:33:51.026Z,3.40
2018-06-17T13:36:20.138Z,3.80
2018-06-17T13:38:49.812Z,3.57
2018-06-17T13:41:18.915Z,3.63
2018-06-17T13:43:48.074Z,3.47
2018-06-17T13:46:17.189Z,3.60
2018-06-17T13:48:46.285Z,3.50
2018-06-17T13:51:15.708Z,3.60
2018-06-17T13:53:44.805Z,3.40
2018-06-17T13:56:13.893Z,3.60
2018-06-17T13:58:43.001Z,3.17
2018-06-17T14:01:12.085Z,3.57
2018-06-17T14:03:41.207Z,3.50
2018-06-17T14:06:10.337Z,3.60
2018-06-17T14:08:39.418Z,3.07
2018-06-17T14:11:08.548Z,3.50
2018-06-17T14:13:37.638Z,3.40
2018-06-17T14:16:07.034Z,3.83
2018-06-17T14:18:36.146Z,3.77
2018-06-17T14:21:05.244Z,4.27
2018-06-17T14:23:34.555Z,3.70
2018-06-17T14:26:03.892Z,5.13
2018-06-17T14:28:32.980Z,4.10
2018-06-17T14:31:02.082Z,4.07
2018-06-17T14:33:31.197Z,3.40
2018-06-17T14:36:00.273Z,3.67
2018-06-17T14:38:29.365Z,3.93
2018-06-17T14:41:03.853Z,3.67
2018-06-17T14:43:38.390Z,3.60
2018-06-17T14:46:12.929Z,3.30
2018-06-17T14:48:47.178Z,3.20
2018-06-17T14:51:21.413Z,3.17
2018-06-17T14:53:50.518Z,4.50
2018-06-17T14:56:20.585Z,3.40
2018-06-17T14:58:49.705Z,3.63
2018-06-17T15:01:19.053Z,3.33
2018-06-17T15:03:49.253Z,4.30
2018-06-17T15:06:18.320Z,3.50
2018-06-17T15:08:47.548Z,3.30
2018-06-17T15:11:17.402Z,3.57
2018-06-17T15:13:46.497Z,3.23
2018-06-17T15:16:15.593Z,3.47
2018-06-17T15:18:44.698Z,3.53
2018-06-17T15:21:14.218Z,3.20
2018-06-17T15:23:44.300Z,3.67
2018-06-17T15:26:13.381Z,3.20
2018-06-17T15:28:42.553Z,3.40
2018-06-17T15:31:17.157Z,3.87
2018-06-17T15:33:51.601Z,3.50
2018-06-17T15:36:26.958Z,3.40
2018-06-17T15:38:57.645Z,3.70
2018-06-17T15:41:27.997Z,3.40
2018-06-17T15:43:59.024Z,3.47
2018-06-17T15:46:28.443Z,3.63
2018-06-17T15:48:57.593Z,3.40
2018-06-17T15:51:26.675Z,3.73
2018-06-17T15:53:55.786Z,3.80
2018-06-17T15:56:24.913Z,3.43
2018-06-17T15:58:53.993Z,4.17
2018-06-17T16:01:23.153Z,4.03
2018-06-17T16:03:52.277Z,3.73
2018-06-17T16:06:21.685Z,3.50
2018-06-17T16:08:50.837Z,3.37
2018-06-17T16:11:19.921Z,3.40
2018-06-17T16:13:54.353Z,2.50
2018-06-17T16:16:28.729Z,3.00
2018-06-17T16:19:03.108Z,2.80
2018-06-17T16:21:32.230Z,2.67
2018-06-17T16:24:01.328Z,2.30
2018-06-17T16:26:30.476Z,2.50
2018-06-17T16:28:59.584Z,1.87
2018-06-17T16:31:28.704Z,1.97
2018-06-17T16:33:58.895Z,2.07
2018-06-17T16:36:28.016Z,2.37
2018-06-17T16:38:57.133Z,2.23
2018-06-17T16:41:26.239Z,2.60
2018-06-17T16:43:55.327Z,2.07
2018-06-17T16:46:24.478Z,2.40
2018-06-17T16:48:53.661Z,2.77
2018-06-17T16:51:28.144Z,2.43
2018-06-17T16:54:02.517Z,2.43
2018-06-17T16:56:37.002Z,1.93
2018-06-17T16:59:17.045Z,2.17
2018-06-17T17:01:46.153Z,2.47
2018-06-17T17:04:15.285Z,1.90
2018-06-17T17:06:44.537Z,2.57
2018-06-17T17:09:13.621Z,2.23
2018-06-17T17:11:42.737Z,1.67
2018-06-17T17:14:12.421Z,2.57
2018-06-17T17:16:42.272Z,2.17
2018-06-17T17:19:11.408Z,1.90
2018-06-17T17:21:40.550Z,2.50
2018-06-17T17:24:09.658Z,2.53
2018-06-17T17:26:38.769Z,2.20
2018-06-17T17:29:07.877Z,2.60
2018-06-17T17:31:42.417Z,3.10
2018-06-17T17:34:16.838Z,2.10
2018-06-17T17:36:51.202Z,2.43
2018-06-17T17:39:25.504Z,2.83
2018-06-17T17:41:54.646Z,2.23
2018-06-17T17:44:23.762Z,2.50
2018-06-17T17:47:29.699Z,2.80
2018-06-17T17:49:58.797Z,2.20
2018-06-17T17:52:27.962Z,2.07
2018-06-17T17:54:57.081Z,2.10
2018-06-17T17:57:29.773Z,2.23
2018-06-17T17:59:58.870Z,2.67
2018-06-17T18:02:27.982Z,2.70
2018-06-17T18:04:57.178Z,2.33
2018-06-17T18:07:26.309Z,2.50
2018-06-17T18:09:57.546Z,1.87
2018-06-17T18:12:26.661Z,1.93
2018-06-17T18:14:55.880Z,2.63
2018-06-17T18:17:24.974Z,2.10
2018-06-17T18:19:54.077Z,2.30
2018-06-17T18:22:23.193Z,2.50
2018-06-17T18:24:57.625Z,2.50
2018-06-17T18:27:32.014Z,2.20
2018-06-17T18:30:06.234Z,2.43
2018-06-17T18:32:40.633Z,2.57
2018-06-17T18:35:15.209Z,2.80
2018-06-17T18:37:44.354Z,2.20
2018-06-17T18:40:13.453Z,2.57
2018-06-17T18:42:42.580Z,2.10
2018-06-17T18:45:11.719Z,2.33
2018-06-17T18:47:40.826Z,2.17
2018-06-17T18:50:09.942Z,2.27
2018-06-17T18:52:39.057Z,2.30
2018-06-17T18:55:08.797Z,1.80
2018-06-17T18:57:40.023Z,1.97
2018-06-17T19:00:09.378Z,2.13
2018-06-17T19:02:38.477Z,1.97
2018-06-17T19:05:07.590Z,2.00
2018-06-17T19:07:36.709Z,1.90
2018-06-17T19:10:11.180Z,1.67
2018-06-17T19:12:45.403Z,2.03
2018-06-17T19:15:20.006Z,1.90
2018-06-17T19:17:54.705Z,2.67
2018-06-17T19:20:23.921Z,2.27
2018-06-17T19:22:53.117Z,2.27
2018-06-17T19:25:22.375Z,2.30
2018-06-17T19:27:51.489Z,2.63
2018-06-17T19:30:20.609Z,1.70
2018-06-17T19:32:49.729Z,2.47
2018-06-17T19:35:18.889Z,2.00
2018-06-17T19:37:48.016Z,2.30
2018-06-17T19:40:17.170Z,2.50
2018-06-17T19:42:46.266Z,2.67
2018-06-17T19:45:15.405Z,2.57
2018-06-17T19:47:44.514Z,2.07
2018-06-17T19:50:18.780Z,2.60
2018-06-17T19:52:53.269Z,2.40
2018-06-17T19:55:27.726Z,2.77
2018-06-17T19:58:02.084Z,2.80
2018-06-17T20:00:33.812Z,2.70
2018-06-17T20:03:03.622Z,3.27
2018-06-17T20:05:32.898Z,3.00
2018-06-17T20:08:02.028Z,3.63
2018-06-17T20:10:31.135Z,3.60
2018-06-17T20:13:06.885Z,3.53
2018-06-17T20:15:35.979Z,3.90
2018-06-17T20:18:05.212Z,4.60
2018-06-17T20:20:34.319Z,3.60
2018-06-17T20:23:03.449Z,3.90
2018-06-17T20:25:32.574Z,3.87
2018-06-17T20:28:01.693Z,4.20
2018-06-17T20:30:30.793Z,3.60
2018-06-17T20:33:05.441Z,3.87
2018-06-17T20:35:39.933Z,3.40
2018-06-17T20:38:17.850Z,2.90
2018-06-17T20:40:52.829Z,3.13
2018-06-17T20:43:27.282Z,2.93
2018-06-17T20:45:56.757Z,2.43
2018-06-17T20:48:25.873Z,3.30
2018-06-17T20:50:57.016Z,3.30
2018-06-17T20:53:26.128Z,3.37
2018-06-17T20:55:55.262Z,3.00
2018-06-17T20:58:24.400Z,3.33
2018-06-17T21:00:53.541Z,3.30
2018-06-17T21:03:22.747Z,3.00
2018-06-17T21:05:51.882Z,3.40
2018-06-17T21:08:21.020Z,3.00
2018-06-17T21:10:50.196Z,3.07
2018-06-17T21:13:19.569Z,3.47
2018-06-17T21:15:48.860Z,2.53
2018-06-17T21:18:23.424Z,2.60
2018-06-17T21:20:57.981Z,2.90
2018-06-17T21:23:32.380Z,3.23
2018-06-17T21:26:06.809Z,3.70
2018-06-17T21:28:35.918Z,3.87
2018-06-17T21:31:05.075Z,3.90
2018-06-17T21:33:34.197Z,3.70
2018-06-17T21:36:03.349Z,3.30
2018-06-17T21:38:32.421Z,3.67
2018-06-17T21:41:13.465Z,3.03
2018-06-17T21:43:42.589Z,3.97
2018-06-17T21:46:11.781Z,3.60
2018-06-17T21:48:40.885Z,3.20
2018-06-17T21:51:09.985Z,3.20
2018-06-17T21:53:39.129Z,3.13
2018-06-17T21:56:08.225Z,3.40
2018-06-17T21:58:42.457Z,3.53
2018-06-17T22:01:11.558Z,3.70
2018-06-17T22:03:40.675Z,3.60
2018-06-17T22:06:09.769Z,3.47
2018-06-17T22:08:44.161Z,3.67
2018-06-17T22:11:18.569Z,3.60
2018-06-17T22:13:52.994Z,3.73
2018-06-17T22:16:27.252Z,3.10
2018-06-17T22:18:56.395Z,3.40
2018-06-17T22:21:25.481Z,4.17
2018-06-17T22:23:54.597Z,3.10
2018-06-17T22:26:23.753Z,3.80
2018-06-17T22:28:52.873Z,3.60
2018-06-17T22:31:21.973Z,3.50
2018-06-17T22:33:51.061Z,3.87
2018-06-17T22:36:20.170Z,3.37
2018-06-17T22:38:49.274Z,3.77
2018-06-17T22:41:18.402Z,3.60
2018-06-17T22:43:47.513Z,3.37
2018-06-17T22:46:16.618Z,3.60
2018-06-17T22:48:45.701Z,3.40
2018-06-17T22:51:14.809Z,3.90
2018-06-17T22:53:55.148Z,3.33
2018-06-17T22:56:29.467Z,3.60
2018-06-17T22:59:03.694Z,3.47
2018-06-17T23:01:38.248Z,3.13
2018-06-17T23:04:12.426Z,3.70
2018-06-17T23:06:46.954Z,3.90
2018-06-17T23:09:21.256Z,3.70
2018-06-17T23:11:50.365Z,3.73
2018-06-17T23:14:19.506Z,3.87
2018-06-17T23:16:48.622Z,3.73
2018-06-17T23:19:17.720Z,3.47
2018-06-17T23:21:46.833Z,3.57
2018-06-17T23:24:15.983Z,3.70
2018-06-17T23:26:45.121Z,3.77
2018-06-17T23:29:14.609Z,2.97
2018-06-17T23:31:43.762Z,3.60
2018-06-17T23:34:12.873Z,3.50
2018-06-17T23:36:42.007Z,3.83
2018-06-17T23:39:11.993Z,3.80
2018-06-17T23:41:41.103Z,3.60
2018-06-17T23:44:10.209Z,3.30
2018-06-17T23:46:44.614Z,3.73
2018-06-17T23:49:18.990Z,3.47
2018-06-17T23:51:53.440Z,3.50
2018-06-17T23:54:27.841Z,3.57
2018-06-17T23:56:56.990Z,3.57
2018-06-17T23:59:26.107Z,3.47
